createdAt,value
2022-10-21T00:00:54.819Z,24.67
2022-10-21T00:03:23.610Z,22.48
2022-10-21T00:05:51.390Z,21.55
2022-10-21T00:08:20.141Z,27.90
2022-10-21T00:10:52.279Z,25.98
2022-10-21T00:13:19.837Z,22.10
2022-10-21T00:16:00.885Z,21.73
2022-10-21T00:18:29.597Z,21.33
2022-10-21T00:20:57.076Z,22.38
2022-10-21T00:23:24.624Z,24.48
2022-10-21T00:25:57.307Z,25.02
2022-10-21T00:28:24.799Z,22.27
2022-10-21T00:30:52.282Z,23.52
2022-10-21T00:33:19.928Z,19.67
2022-10-21T00:35:58.302Z,21.73
2022-10-21T00:38:26.390Z,23.48
2022-10-21T00:40:53.936Z,24.42
2022-10-21T00:43:21.528Z,27.58
2022-10-21T00:45:53.522Z,21.58
2022-10-21T00:48:55.955Z,31.58
2022-10-21T00:51:23.828Z,23.73
2022-10-21T00:53:52.623Z,23.10
2022-10-21T00:56:29.097Z,28.50
2022-10-21T00:59:00.547Z,25.02
2022-10-21T01:01:28.165Z,33.30
2022-10-21T01:03:55.757Z,25.35
2022-10-21T01:06:26.319Z,21.48
2022-10-21T01:08:55.522Z,25.20
2022-10-21T01:11:24.790Z,24.52
2022-10-21T01:14:11.095Z,22.77
2022-10-21T01:16:48.418Z,21.88
2022-10-21T01:19:30.767Z,23.27
2022-10-21T01:22:16.792Z,22.75
2022-10-21T01:24:56.175Z,20.23
2022-10-21T01:27:49.822Z,22.15
2022-10-21T01:30:29.955Z,17.48
2022-10-21T01:33:00.472Z,20.98
2022-10-21T01:35:40.381Z,17.70
2022-10-21T01:38:42.208Z,18.98
2022-10-21T01:41:21.649Z,20.98
2022-10-21T01:44:03.242Z,21.80
2022-10-21T01:46:38.982Z,21.58
2022-10-21T01:49:16.895Z,22.98
2022-10-21T01:51:45.071Z,20.02
2022-10-21T01:54:19.423Z,22.77
2022-10-21T01:56:49.254Z,19.27
2022-10-21T01:59:18.715Z,21.40
2022-10-21T02:01:47.965Z,26.42
2022-10-21T02:04:17.720Z,21.80
2022-10-21T02:06:45.569Z,20.45
2022-10-21T02:09:13.181Z,23.55
2022-10-21T02:11:44.297Z,24.20
2022-10-21T02:14:43.900Z,23.33
2022-10-21T02:17:14.781Z,29.17
2022-10-21T02:19:42.322Z,26.35
2022-10-21T02:22:13.966Z,27.15
2022-10-21T02:24:51.139Z,26.55
2022-10-21T02:27:19.473Z,29.95
2022-10-21T02:29:50.187Z,27.05
2022-10-21T02:32:24.437Z,25.38
2022-10-21T02:35:10.147Z,26.15
2022-10-21T02:37:47.404Z,24.77
2022-10-21T02:40:45.737Z,23.63
2022-10-21T02:43:23.550Z,24.83
2022-10-21T02:45:51.211Z,29.15
2022-10-21T02:48:18.694Z,23.48
2022-10-21T02:50:46.147Z,28.55
2022-10-21T02:53:14.901Z,25.58
2022-10-21T02:55:42.355Z,27.85
2022-10-21T02:58:09.868Z,23.42
2022-10-21T03:00:37.588Z,26.40
2022-10-21T03:03:05.219Z,26.42
2022-10-21T03:05:32.815Z,28.98
2022-10-21T03:08:00.355Z,24.27
2022-10-21T03:10:27.844Z,28.70
2022-10-21T03:12:55.285Z,25.25
2022-10-21T03:15:22.752Z,28.05
2022-10-21T03:17:50.288Z,28.45
2022-10-21T03:20:17.804Z,29.15
2022-10-21T03:22:45.391Z,31.85
2022-10-21T03:25:13.386Z,30.02
2022-10-21T03:27:41.124Z,34.00
2022-10-21T03:30:09.290Z,29.02
2022-10-21T03:32:37.653Z,28.15
2022-10-21T03:35:05.663Z,27.05
2022-10-21T03:37:33.134Z,24.08
2022-10-21T03:40:00.631Z,30.25
2022-10-21T03:42:30.866Z,27.13
2022-10-21T03:44:58.360Z,25.33
2022-10-21T03:47:25.832Z,27.30
2022-10-21T03:49:53.342Z,33.53
2022-10-21T03:52:20.778Z,26.85
2022-10-21T03:54:48.339Z,27.88
2022-10-21T03:57:15.837Z,29.05
2022-10-21T03:59:43.327Z,28.13
2022-10-21T04:02:10.780Z,26.48
2022-10-21T04:04:38.399Z,27.73
2022-10-21T04:07:06.141Z,26.35
2022-10-21T04:09:33.617Z,23.50
2022-10-21T04:12:01.126Z,28.73
2022-10-21T04:14:28.607Z,24.55
2022-10-21T04:17:02.609Z,31.90
2022-10-21T04:19:34.764Z,26.88
2022-10-21T04:22:02.260Z,26.23
2022-10-21T04:24:29.802Z,23.08
2022-10-21T04:26:57.309Z,29.50
2022-10-21T04:29:24.795Z,25.30
2022-10-21T04:31:52.418Z,32.97
2022-10-21T04:34:19.929Z,22.73
2022-10-21T04:36:47.384Z,26.25
2022-10-21T04:39:14.845Z,30.50
2022-10-21T04:41:42.363Z,25.10
2022-10-21T04:44:09.871Z,26.05
2022-10-21T04:46:37.323Z,29.70
2022-10-21T04:49:04.840Z,28.52
2022-10-21T04:54:04.918Z,31.92
2022-10-21T04:56:32.635Z,28.20
2022-10-21T04:59:00.115Z,27.75
2022-10-21T05:01:27.836Z,23.70
2022-10-21T05:03:55.368Z,28.33
2022-10-21T05:06:22.847Z,25.02
2022-10-21T05:08:50.382Z,26.80
2022-10-21T05:11:17.907Z,26.00
2022-10-21T05:13:46.639Z,25.58
2022-10-21T05:16:14.108Z,27.50
2022-10-21T05:18:41.576Z,26.13
2022-10-21T05:21:09.141Z,29.30
2022-10-21T05:23:36.646Z,34.33
2022-10-21T05:26:04.189Z,24.70
2022-10-21T05:28:31.663Z,25.92
2022-10-21T05:30:59.187Z,24.08
2022-10-21T05:33:26.687Z,25.17
2022-10-21T05:36:05.127Z,24.63
2022-10-21T05:38:32.953Z,29.10
2022-10-21T05:41:01.039Z,23.05
2022-10-21T05:43:29.182Z,22.92
2022-10-21T05:45:56.765Z,28.23
2022-10-21T05:48:25.035Z,25.50
2022-10-21T05:50:54.666Z,23.65
2022-10-21T05:53:25.717Z,24.10
2022-10-21T05:56:01.298Z,26.58
2022-10-21T05:58:29.890Z,25.98
2022-10-21T06:00:58.110Z,27.77
2022-10-21T06:03:30.846Z,20.73
2022-10-21T06:06:03.650Z,25.45
2022-10-21T06:08:33.472Z,26.98
2022-10-21T06:11:10.532Z,21.40
2022-10-21T06:13:38.994Z,20.50
2022-10-21T06:16:07.818Z,20.80
2022-10-21T06:18:35.738Z,23.30
2022-10-21T06:21:03.596Z,24.33
2022-10-21T06:23:31.217Z,23.92
2022-10-21T06:26:00.939Z,24.67
2022-10-21T06:28:30.855Z,25.15
2022-10-21T06:30:58.526Z,21.38
2022-10-21T06:33:27.252Z,22.63
2022-10-21T06:35:56.080Z,25.00
2022-10-21T06:38:24.613Z,25.95
2022-10-21T06:40:52.326Z,21.30
2022-10-21T06:45:48.070Z,20.45
2022-10-21T06:48:15.631Z,23.85
2022-10-21T06:50:43.150Z,21.73
2022-10-21T06:53:10.659Z,20.75
2022-10-21T06:55:38.421Z,24.25
2022-10-21T06:58:05.914Z,20.10
2022-10-21T07:00:33.353Z,19.08
2022-10-21T07:03:00.818Z,20.20
2022-10-21T07:05:28.281Z,16.95
2022-10-21T07:07:55.750Z,18.85
2022-10-21T07:10:23.201Z,20.17
2022-10-21T07:12:50.734Z,17.90
2022-10-21T07:15:18.326Z,19.52
2022-10-21T07:17:45.787Z,22.33
2022-10-21T07:20:13.263Z,22.45
2022-10-21T07:22:40.819Z,21.52
2022-10-21T07:25:09.297Z,18.02
2022-10-21T07:27:37.168Z,20.25
2022-10-21T07:30:05.293Z,22.30
2022-10-21T07:32:32.741Z,21.00
2022-10-21T07:35:01.285Z,18.83
2022-10-21T07:37:30.617Z,21.20
2022-10-21T07:39:58.400Z,18.17
2022-10-21T07:42:26.115Z,21.15
2022-10-21T07:44:57.325Z,20.63
2022-10-21T07:47:25.603Z,19.08
2022-10-21T07:49:53.357Z,15.95
2022-10-21T07:52:20.899Z,16.27
2022-10-21T07:54:48.464Z,15.68
2022-10-21T07:57:16.011Z,16.42
2022-10-21T07:59:43.562Z,17.77
2022-10-21T08:02:15.444Z,19.23
2022-10-21T08:04:42.915Z,19.10
2022-10-21T08:07:13.134Z,15.95
2022-10-21T08:09:41.449Z,15.50
2022-10-21T08:12:10.435Z,17.70
2022-10-21T08:14:41.143Z,15.50
2022-10-21T08:17:08.713Z,21.40
2022-10-21T08:19:36.218Z,20.38
2022-10-21T08:22:03.854Z,13.70
2022-10-21T08:24:31.481Z,16.17
2022-10-21T08:26:59.026Z,19.17
2022-10-21T08:29:26.814Z,14.95
2022-10-21T08:31:54.318Z,16.88
2022-10-21T08:34:21.755Z,16.50
2022-10-21T08:36:49.217Z,17.67
2022-10-21T08:39:16.762Z,15.07
2022-10-21T08:41:56.355Z,18.67
2022-10-21T08:44:34.031Z,16.77
2022-10-21T08:47:29.288Z,17.65
2022-10-21T08:50:07.824Z,15.60
2022-10-21T08:52:49.417Z,13.20
2022-10-21T08:55:24.070Z,15.55
2022-10-21T08:57:54.640Z,12.13
2022-10-21T09:00:32.074Z,16.38
2022-10-21T09:03:11.008Z,17.15
2022-10-21T09:06:00.426Z,15.52
2022-10-21T09:08:33.285Z,18.85
2022-10-21T09:11:22.195Z,14.90
2022-10-21T09:14:21.358Z,13.20
2022-10-21T09:17:00.974Z,13.07
2022-10-21T09:19:58.022Z,15.02
2022-10-21T09:22:49.519Z,14.75
2022-10-21T09:25:35.444Z,12.80
2022-10-21T09:28:12.284Z,13.73
2022-10-21T09:30:41.978Z,12.35
2022-10-21T09:33:26.361Z,12.00
2022-10-21T09:36:03.625Z,16.30
2022-10-21T09:38:53.747Z,12.45
2022-10-21T09:41:31.184Z,10.52
2022-10-21T09:43:58.770Z,11.73
2022-10-21T09:46:26.541Z,9.65
2022-10-21T09:51:45.432Z,8.05
2022-10-21T09:54:18.222Z,10.63
2022-10-21T09:56:59.919Z,11.48
2022-10-21T09:59:32.867Z,13.63
2022-10-21T10:02:08.866Z,14.30
2022-10-21T10:04:36.969Z,10.40
2022-10-21T10:07:22.329Z,10.55
2022-10-21T10:09:50.171Z,10.52
2022-10-21T10:12:22.974Z,9.38
2022-10-21T10:14:51.197Z,12.13
2022-10-21T10:17:18.588Z,7.93
2022-10-21T10:20:06.067Z,10.07
2022-10-21T10:22:38.418Z,8.85
2022-10-21T10:25:15.990Z,9.10
2022-10-21T10:27:57.655Z,11.40
2022-10-21T10:30:30.271Z,9.90
2022-10-21T10:32:58.130Z,7.00
2022-10-21T10:35:32.897Z,10.38
2022-10-21T10:38:02.814Z,8.52
2022-10-21T10:40:38.817Z,5.63
2022-10-21T10:43:19.058Z,6.63
2022-10-21T10:46:01.589Z,7.55
2022-10-21T10:48:38.197Z,7.30
2022-10-21T10:51:24.678Z,10.48
2022-10-21T10:54:28.851Z,5.85
2022-10-21T10:56:59.080Z,8.15
2022-10-21T10:59:45.371Z,9.18
2022-10-21T11:02:12.988Z,9.10
2022-10-21T11:05:14.894Z,8.80
2022-10-21T11:07:54.023Z,7.20
2022-10-21T11:10:31.457Z,11.43
2022-10-21T11:13:00.838Z,5.45
2022-10-21T11:15:37.417Z,9.98
2022-10-21T11:18:25.826Z,13.18
2022-10-21T11:21:02.764Z,6.72
2022-10-21T11:23:45.301Z,7.57
2022-10-21T11:26:51.088Z,6.30
2022-10-21T11:29:37.225Z,7.45
2022-10-21T11:32:11.999Z,7.90
2022-10-21T11:35:01.107Z,5.82
2022-10-21T11:37:37.826Z,2.90
2022-10-21T11:40:20.731Z,7.07
2022-10-21T11:42:52.173Z,6.13
2022-10-21T11:45:36.923Z,3.22
2022-10-21T11:48:20.542Z,4.13
2022-10-21T11:51:14.087Z,4.38
2022-10-21T11:54:06.993Z,5.00
2022-10-21T11:56:38.482Z,2.90
2022-10-21T11:59:36.100Z,5.90
2022-10-21T12:02:22.054Z,3.67
2022-10-21T12:05:01.516Z,5.93
2022-10-21T12:07:50.911Z,5.32
2022-10-21T12:10:44.874Z,6.68
2022-10-21T12:13:23.195Z,2.58
2022-10-21T12:15:55.393Z,4.15
2022-10-21T12:18:25.302Z,5.10
2022-10-21T12:20:55.488Z,4.50
2022-10-21T12:23:25.741Z,5.80
2022-10-21T12:26:19.940Z,7.05
2022-10-21T12:28:56.582Z,3.15
2022-10-21T12:31:45.423Z,6.55
2022-10-21T12:34:14.217Z,8.55
2022-10-21T12:36:45.897Z,4.55
2022-10-21T12:39:49.431Z,4.18
2022-10-21T12:42:20.081Z,5.78
2022-10-21T12:44:50.616Z,5.25
2022-10-21T12:47:32.318Z,4.95
2022-10-21T12:50:20.203Z,4.35
2022-10-21T12:53:03.898Z,3.85
2022-10-21T12:55:39.272Z,4.38
2022-10-21T12:58:18.101Z,3.58
2022-10-21T13:00:45.632Z,6.10
2022-10-21T13:03:19.801Z,7.57
2022-10-21T13:05:47.233Z,4.45
2022-10-21T13:08:27.263Z,4.13
2022-10-21T13:11:03.720Z,5.57
2022-10-21T13:13:51.448Z,4.88
2022-10-21T13:16:21.922Z,4.45
2022-10-21T13:18:52.293Z,6.22
2022-10-21T13:21:41.272Z,7.22
2022-10-21T13:24:23.667Z,4.45
2022-10-21T13:26:54.217Z,5.50
2022-10-21T13:29:24.937Z,7.07
2022-10-21T13:32:31.204Z,6.07
2022-10-21T13:35:01.729Z,4.53
2022-10-21T13:37:35.929Z,4.45
2022-10-21T13:40:08.681Z,3.05
2022-10-21T13:42:41.261Z,3.67
2022-10-21T13:45:26.282Z,3.22
2022-10-21T13:48:13.603Z,7.78
2022-10-21T13:50:44.252Z,4.68
2022-10-21T13:53:25.137Z,4.95
2022-10-21T13:56:03.103Z,4.78
2022-10-21T13:58:38.917Z,4.88
2022-10-21T14:01:16.841Z,6.40
2022-10-21T14:03:45.280Z,3.42
2022-10-21T14:06:19.733Z,4.95
2022-10-21T14:08:48.876Z,5.13
2022-10-21T14:11:27.277Z,4.18
2022-10-21T14:13:57.342Z,4.85
2022-10-21T14:16:38.542Z,6.35
2022-10-21T14:19:15.526Z,4.75
2022-10-21T14:21:46.529Z,4.85
2022-10-21T14:24:33.098Z,2.88
2022-10-21T14:27:02.156Z,8.85
2022-10-21T14:29:33.119Z,4.15
2022-10-21T14:32:01.794Z,3.65
2022-10-21T14:34:32.731Z,2.72
2022-10-21T14:37:14.377Z,4.97
2022-10-21T14:39:41.957Z,4.20
2022-10-21T14:42:16.031Z,3.22
2022-10-21T14:44:47.616Z,4.15
2022-10-21T14:47:24.866Z,2.75
2022-10-21T14:49:55.004Z,3.22
2022-10-21T14:52:28.744Z,2.65
2022-10-21T14:55:01.092Z,5.40
2022-10-21T14:57:41.827Z,2.33
2022-10-21T15:00:25.118Z,6.53
2022-10-21T15:02:57.130Z,1.58
2022-10-21T15:05:32.963Z,8.63
2022-10-21T15:08:22.576Z,6.35
2022-10-21T15:10:55.894Z,4.20
2022-10-21T15:13:24.396Z,2.22
2022-10-21T15:15:54.529Z,3.80
2022-10-21T15:18:46.559Z,3.45
2022-10-21T15:21:40.068Z,4.70
2022-10-21T15:24:08.513Z,4.70
2022-10-21T15:26:40.482Z,4.50
2022-10-21T15:29:20.013Z,7.57
2022-10-21T15:31:48.013Z,6.30
2022-10-21T15:34:17.146Z,8.05
2022-10-21T15:36:45.035Z,3.92
2022-10-21T15:39:12.952Z,3.70
2022-10-21T15:41:40.797Z,5.95
2022-10-21T15:44:21.811Z,3.88
2022-10-21T15:46:50.480Z,4.95
2022-10-21T15:49:23.354Z,3.10
2022-10-21T15:51:51.386Z,2.40
2022-10-21T15:54:20.511Z,3.25
2022-10-21T15:56:51.963Z,2.28
2022-10-21T15:59:25.958Z,3.50
2022-10-21T16:01:54.619Z,1.75
2022-10-21T16:04:22.604Z,7.35
2022-10-21T16:06:51.496Z,7.70
2022-10-21T16:09:24.661Z,3.95
2022-10-21T16:11:59.476Z,3.63
2022-10-21T16:14:29.581Z,2.13
2022-10-21T16:17:00.777Z,2.67
2022-10-21T16:19:29.479Z,3.13
2022-10-21T16:21:58.006Z,3.47
2022-10-21T16:24:25.943Z,4.78
2022-10-21T16:26:53.506Z,7.45
2022-10-21T16:29:24.371Z,4.15
2022-10-21T16:31:52.689Z,8.63
2022-10-21T16:34:20.699Z,8.63
2022-10-21T16:36:48.310Z,6.47
2022-10-21T16:39:19.575Z,9.30
2022-10-21T16:41:47.246Z,6.83
2022-10-21T16:44:15.038Z,4.30
2022-10-21T16:47:08.543Z,5.35
2022-10-21T16:49:36.121Z,6.75
2022-10-21T16:52:03.671Z,6.03
2022-10-21T16:54:31.272Z,5.05
2022-10-21T16:57:00.331Z,6.15
2022-10-21T16:59:28.719Z,3.38
2022-10-21T17:01:58.677Z,7.85
2022-10-21T17:04:26.312Z,11.27
2022-10-21T17:06:55.230Z,8.45
2022-10-21T17:09:24.845Z,5.05
2022-10-21T17:11:52.375Z,2.92
2022-10-21T17:14:21.338Z,7.35
2022-10-21T17:16:48.844Z,4.78
2022-10-21T17:19:16.591Z,9.48
2022-10-21T17:21:44.910Z,6.43
2022-10-21T17:24:17.648Z,5.95
2022-10-21T17:26:46.057Z,3.38
2022-10-21T17:29:13.741Z,4.63
2022-10-21T17:31:43.120Z,6.40
2022-10-21T17:34:24.210Z,5.75
2022-10-21T17:36:51.706Z,2.47
2022-10-21T17:39:19.167Z,6.88
2022-10-21T17:44:15.585Z,6.65
2022-10-21T17:46:43.225Z,6.57
2022-10-21T17:49:11.044Z,8.18
2022-10-21T17:51:38.526Z,4.80
2022-10-21T17:54:07.537Z,6.70
2022-10-21T17:56:35.312Z,6.88
2022-10-21T17:59:03.722Z,4.25
2022-10-21T18:01:31.276Z,6.43
2022-10-21T18:03:59.617Z,7.97
2022-10-21T18:06:27.756Z,6.72
2022-10-21T18:08:58.312Z,6.25
2022-10-21T18:11:26.351Z,8.50
2022-10-21T18:13:55.379Z,9.05
2022-10-21T18:16:24.878Z,5.75
2022-10-21T18:18:56.081Z,6.82
2022-10-21T18:21:26.174Z,9.63
2022-10-21T18:23:54.745Z,8.73
2022-10-21T18:26:25.887Z,7.07
2022-10-21T18:28:58.793Z,9.23
2022-10-21T18:31:29.856Z,15.05
2022-10-21T18:33:59.289Z,10.40
2022-10-21T18:36:26.842Z,7.38
2022-10-21T18:38:54.827Z,8.80
2022-10-21T18:41:22.759Z,10.00
2022-10-21T18:44:00.179Z,8.68
2022-10-21T18:46:28.116Z,8.23
2022-10-21T18:48:55.664Z,10.40
2022-10-21T18:51:23.879Z,12.13
2022-10-21T18:53:53.192Z,10.60
2022-10-21T18:56:23.208Z,10.32
2022-10-21T18:58:51.294Z,8.88
2022-10-21T19:01:20.201Z,13.20
2022-10-21T19:03:50.630Z,11.75
2022-10-21T19:06:35.840Z,9.98
2022-10-21T19:09:09.053Z,8.90
2022-10-21T19:11:36.579Z,6.70
2022-10-21T19:14:05.453Z,19.55
2022-10-21T19:16:35.106Z,9.15
2022-10-21T19:19:02.810Z,10.32
2022-10-21T19:21:30.610Z,7.57
2022-10-21T19:24:01.361Z,9.57
2022-10-21T19:26:28.984Z,11.32
2022-10-21T19:29:07.208Z,5.88
2022-10-21T19:31:36.430Z,7.05
2022-10-21T19:34:06.620Z,6.47
2022-10-21T19:36:34.854Z,7.25
2022-10-21T19:39:02.385Z,6.85
2022-10-21T19:41:29.866Z,4.78
2022-10-21T19:43:59.023Z,7.05
2022-10-21T19:46:29.345Z,5.80
2022-10-21T19:48:57.470Z,5.15
2022-10-21T19:51:26.361Z,5.63
2022-10-21T19:53:55.130Z,3.22
2022-10-21T19:56:27.678Z,5.70
2022-10-21T19:58:56.400Z,4.38
2022-10-21T20:01:26.461Z,2.72
2022-10-21T20:03:55.060Z,3.95
2022-10-21T20:06:28.805Z,3.78
2022-10-21T20:09:02.037Z,5.47
2022-10-21T20:11:30.654Z,3.17
2022-10-21T20:13:58.644Z,4.25
2022-10-21T20:16:31.471Z,5.72
2022-10-21T20:19:01.411Z,7.30
2022-10-21T20:21:30.557Z,6.85
2022-10-21T20:23:59.163Z,4.25
2022-10-21T20:26:26.866Z,4.03
2022-10-21T20:28:54.421Z,4.70
2022-10-21T20:31:22.170Z,7.97
2022-10-21T20:33:51.883Z,6.15
2022-10-21T20:36:23.855Z,4.53
2022-10-21T20:38:52.844Z,6.13
2022-10-21T20:41:23.026Z,4.35
2022-10-21T20:43:52.422Z,7.38
2022-10-21T20:46:22.518Z,4.45
2022-10-21T20:48:51.351Z,4.75
2022-10-21T20:51:21.707Z,6.03
2022-10-21T20:53:51.484Z,4.88
2022-10-21T20:56:19.650Z,4.45
2022-10-21T20:58:47.311Z,4.63
2022-10-21T21:01:22.120Z,13.98
2022-10-21T21:03:51.074Z,7.90
2022-10-21T21:06:19.208Z,4.80
2022-10-21T21:08:53.495Z,6.15
2022-10-21T21:11:34.788Z,7.93
2022-10-21T21:14:02.275Z,6.13
2022-10-21T21:16:29.945Z,7.80
2022-10-21T21:19:04.997Z,4.95
2022-10-21T21:21:35.471Z,5.05
2022-10-21T21:24:03.838Z,6.32
2022-10-21T21:26:34.237Z,5.22
2022-10-21T21:29:02.124Z,4.68
2022-10-21T21:31:31.285Z,5.35
2022-10-21T21:33:59.270Z,8.50
2022-10-21T21:36:27.373Z,8.18
2022-10-21T21:38:54.998Z,8.68
2022-10-21T21:41:24.614Z,7.15
2022-10-21T21:43:53.485Z,6.72
2022-10-21T21:46:24.054Z,5.35
2022-10-21T21:48:55.262Z,9.85
2022-10-21T21:51:24.110Z,8.98
2022-10-21T21:53:52.063Z,8.63
2022-10-21T21:56:20.657Z,8.48
2022-10-21T21:58:52.295Z,7.38
2022-10-21T22:01:22.316Z,5.78
2022-10-21T22:03:51.754Z,3.95
2022-10-21T22:06:21.886Z,11.60
2022-10-21T22:08:50.338Z,6.95
2022-10-21T22:11:21.288Z,8.07
2022-10-21T22:13:49.319Z,6.15
2022-10-21T22:16:17.338Z,8.18
2022-10-21T22:18:44.983Z,5.55
2022-10-21T22:21:15.169Z,6.05
2022-10-21T22:23:43.340Z,8.40
2022-10-21T22:26:12.058Z,6.85
2022-10-21T22:28:40.191Z,6.55
2022-10-21T22:31:14.359Z,6.45
2022-10-21T22:36:17.279Z,7.85
2022-10-21T22:38:45.887Z,6.10
2022-10-21T22:41:14.193Z,10.23
2022-10-21T22:43:42.835Z,4.80
2022-10-21T22:46:22.176Z,5.05
2022-10-21T22:48:58.008Z,4.05
2022-10-21T22:51:25.584Z,4.93
2022-10-21T22:53:55.597Z,8.88
2022-10-21T22:56:28.752Z,9.23
2022-10-21T22:58:57.236Z,5.85
2022-10-21T23:01:29.006Z,3.95
2022-10-21T23:04:02.485Z,3.83
2022-10-21T23:06:35.037Z,4.80
2022-10-21T23:09:04.351Z,9.10
2022-10-21T23:11:32.724Z,5.13
2022-10-21T23:14:08.468Z,12.30
2022-10-21T23:16:37.676Z,9.77
2022-10-21T23:19:06.104Z,9.13
2022-10-21T23:21:33.858Z,5.32
2022-10-21T23:24:01.387Z,6.68
2022-10-21T23:26:28.909Z,5.50
2022-10-21T23:28:56.413Z,7.65
2022-10-21T23:31:23.935Z,9.05
2022-10-21T23:33:51.556Z,7.38
2022-10-21T23:36:19.139Z,6.18
2022-10-21T23:38:46.610Z,4.97
2022-10-21T23:41:14.296Z,12.48
2022-10-21T23:43:42.126Z,10.82
2022-10-21T23:46:09.876Z,6.65
2022-10-21T23:48:37.489Z,3.35
2022-10-21T23:51:05.473Z,4.57
2022-10-21T23:53:33.072Z,7.47
2022-10-21T23:56:01.048Z,5.53
2022-10-21T23:58:28.614Z,8.10
